createdAt,value
2022-11-24T00:00:30.456Z,0.00
2022-11-24T00:05:18.594Z,0.00
2022-11-24T00:10:24.485Z,0.00
2022-11-24T00:15:30.433Z,0.00
2022-11-24T00:20:19.729Z,0.00
2022-11-24T00:25:25.619Z,0.00
2022-11-24T00:30:32.152Z,0.00
2022-11-24T00:35:20.615Z,0.00
2022-11-24T00:40:29.684Z,0.00
2022-11-24T00:45:32.999Z,0.00
2022-11-24T00:50:21.827Z,0.00
2022-11-24T00:55:27.884Z,0.00
2022-11-24T01:00:16.904Z,0.00
2022-11-24T01:05:22.302Z,0.00
2022-11-24T01:10:28.036Z,0.00
2022-11-24T01:15:17.028Z,0.00
2022-11-24T01:20:23.825Z,0.00
2022-11-24T01:25:29.071Z,0.00
2022-11-24T01:30:18.175Z,0.00
2022-11-24T01:35:24.195Z,0.00
2022-11-24T01:40:30.343Z,0.00
2022-11-24T01:45:19.370Z,0.00
2022-11-24T01:50:25.335Z,0.00
2022-11-24T01:55:31.431Z,0.00
2022-11-24T02:00:20.624Z,0.00
2022-11-24T02:05:26.917Z,0.00
2022-11-24T02:10:32.695Z,0.00
2022-11-24T02:15:21.608Z,0.00
2022-11-24T02:20:27.629Z,0.00
2022-11-24T02:25:16.671Z,0.00
2022-11-24T02:30:22.858Z,0.00
2022-11-24T02:35:28.799Z,0.00
2022-11-24T02:40:17.977Z,0.00
2022-11-24T02:45:24.012Z,0.00
2022-11-24T02:50:29.996Z,0.00
2022-11-24T02:55:19.017Z,0.00
2022-11-24T03:00:25.179Z,0.00
2022-11-24T03:05:30.762Z,0.00
2022-11-24T03:10:19.066Z,0.00
2022-11-24T03:15:25.325Z,0.00
2022-11-24T03:20:31.256Z,0.00
2022-11-24T03:25:20.274Z,0.00
2022-11-24T03:30:26.416Z,0.00
2022-11-24T03:35:32.418Z,0.00
2022-11-24T03:40:21.558Z,0.00
2022-11-24T03:45:45.411Z,0.00
2022-11-24T03:50:16.591Z,0.00
2022-11-24T03:55:22.706Z,0.00
2022-11-24T04:00:28.810Z,0.00
2022-11-24T04:05:16.924Z,0.00
2022-11-24T04:10:23.790Z,0.00
2022-11-24T04:15:29.973Z,0.00
2022-11-24T04:20:18.881Z,0.00
2022-11-24T04:25:24.912Z,0.00
2022-11-24T04:30:30.952Z,0.00
2022-11-24T04:35:19.962Z,0.00
2022-11-24T04:40:26.087Z,0.00
2022-11-24T04:45:32.675Z,0.00
2022-11-24T04:50:21.209Z,0.00
2022-11-24T04:55:27.239Z,0.00
2022-11-24T05:00:33.315Z,0.00
2022-11-24T05:05:21.659Z,0.00
2022-11-24T05:10:27.565Z,0.00
2022-11-24T05:15:16.519Z,0.00
2022-11-24T05:20:22.687Z,0.00
2022-11-24T06:45:22.475Z,0.00
2022-11-24T06:50:33.445Z,0.41
2022-11-24T06:55:17.535Z,0.95
2022-11-24T07:00:23.873Z,1.85
2022-11-24T07:05:28.999Z,4.06
2022-11-24T07:10:17.867Z,5.56
2022-11-24T07:15:23.967Z,8.22
2022-11-24T07:20:29.977Z,8.06
2022-11-24T07:25:19.038Z,8.35
2022-11-24T07:30:25.145Z,8.91
2022-11-24T07:35:31.153Z,10.81
2022-11-24T07:40:20.346Z,14.21
2022-11-24T07:45:26.500Z,11.34
2022-11-24T07:50:32.304Z,15.31
2022-11-24T07:55:21.345Z,20.79
2022-11-24T08:00:27.489Z,29.47
2022-11-24T08:05:15.816Z,48.12
2022-11-24T08:10:22.537Z,61.66
2022-11-24T08:15:28.645Z,42.79
2022-11-24T08:20:17.810Z,69.82
2022-11-24T08:25:23.962Z,52.09
2022-11-24T08:30:29.801Z,54.98
2022-11-24T08:35:18.796Z,51.20
2022-11-24T08:40:25.704Z,55.20
2022-11-24T08:45:31.149Z,67.83
2022-11-24T08:50:20.015Z,107.34
2022-11-24T08:55:26.044Z,111.99
2022-11-24T09:00:32.435Z,87.35
2022-11-24T09:05:50.155Z,98.90
2022-11-24T09:10:26.146Z,88.65
2022-11-24T09:15:32.271Z,106.68
2022-11-24T09:20:21.461Z,112.36
2022-11-24T09:25:27.627Z,117.45
2022-11-24T09:30:16.516Z,147.65
2022-11-24T09:35:22.445Z,173.51
2022-11-24T09:40:28.553Z,85.66
2022-11-24T09:45:26.266Z,118.14
2022-11-24T09:50:23.683Z,118.77
2022-11-24T09:55:29.668Z,112.70
2022-11-24T10:00:18.936Z,103.38
2022-11-24T10:05:24.156Z,94.69
2022-11-24T10:10:29.861Z,79.02
2022-11-24T10:15:18.865Z,70.79
2022-11-24T10:20:24.996Z,70.94
2022-11-24T10:25:31.147Z,60.52
2022-11-24T10:30:20.077Z,73.93
2022-11-24T10:35:26.163Z,73.90
2022-11-24T10:40:55.872Z,56.96
2022-11-24T10:45:21.260Z,44.23
2022-11-24T10:50:27.520Z,44.56
2022-11-24T10:55:16.333Z,56.98
2022-11-24T11:00:25.716Z,52.32
2022-11-24T11:05:28.391Z,48.67
2022-11-24T11:10:17.228Z,41.46
2022-11-24T11:15:23.308Z,60.47
2022-11-24T11:20:29.378Z,72.77
2022-11-24T11:25:18.415Z,113.76
2022-11-24T11:31:34.975Z,139.44
2022-11-24T11:35:30.540Z,85.13
2022-11-24T11:40:19.583Z,34.50
2022-11-24T11:45:25.749Z,28.92
2022-11-24T11:50:42.847Z,45.44
2022-11-24T11:55:20.713Z,40.48
2022-11-24T12:00:26.936Z,54.21
2022-11-24T12:05:32.163Z,47.40
2022-11-24T12:10:20.936Z,58.94
2022-11-24T12:15:27.026Z,83.77
2022-11-24T12:20:16.147Z,58.10
2022-11-24T12:25:22.092Z,28.02
2022-11-24T12:30:28.236Z,21.92
2022-11-24T12:35:17.241Z,30.10
2022-11-24T12:40:23.317Z,29.79
2022-11-24T12:50:18.347Z,31.64
2022-11-24T12:55:24.536Z,25.51
2022-11-24T13:00:30.492Z,28.40
2022-11-24T13:05:18.772Z,32.42
2022-11-24T13:10:53.507Z,34.99
2022-11-24T13:35:21.935Z,15.35
2022-11-24T13:40:27.945Z,22.71
2022-11-24T13:45:16.991Z,23.78
2022-11-24T13:50:23.145Z,21.01
2022-11-24T13:55:29.148Z,58.55
2022-11-24T14:00:18.386Z,109.21
2022-11-24T14:05:23.560Z,148.23
2022-11-24T14:10:29.332Z,107.04
2022-11-24T14:15:18.349Z,76.78
2022-11-24T14:25:30.501Z,26.90
2022-11-24T14:30:19.496Z,18.30
2022-11-24T14:35:25.709Z,18.19
2022-11-24T14:40:31.677Z,15.06
2022-11-24T14:45:20.695Z,12.51
2022-11-24T14:50:26.902Z,11.65
2022-11-24T14:55:32.877Z,13.03
2022-11-24T15:00:21.961Z,15.73
2022-11-24T15:05:27.815Z,13.41
2022-11-24T15:10:16.018Z,7.87
2022-11-24T15:15:22.083Z,6.13
2022-11-24T15:20:28.111Z,3.63
2022-11-24T15:25:17.174Z,1.50
2022-11-24T15:30:23.254Z,0.16
2022-11-24T15:35:29.328Z,0.00
2022-11-24T15:40:18.393Z,0.00
2022-11-24T15:45:24.419Z,0.00
2022-11-24T15:50:30.405Z,0.00
2022-11-24T15:55:19.497Z,0.00
2022-11-24T16:00:25.707Z,0.00
2022-11-24T16:05:31.983Z,0.00
2022-11-24T16:10:20.795Z,0.00
2022-11-24T16:15:26.683Z,0.00
2022-11-24T16:20:32.727Z,0.00
2022-11-24T16:25:21.932Z,0.00
2022-11-24T16:30:27.858Z,0.00
2022-11-24T16:35:17.596Z,0.00
2022-11-24T16:40:23.277Z,0.00
2022-11-24T16:45:29.173Z,0.00
2022-11-24T16:50:18.034Z,0.00
2022-11-24T16:55:24.073Z,0.00
2022-11-24T17:00:30.296Z,0.00
2022-11-24T17:05:18.506Z,0.00
2022-11-24T17:10:24.237Z,0.00
2022-11-24T17:15:34.456Z,0.00
2022-11-24T17:20:19.272Z,0.00
2022-11-24T17:25:25.370Z,0.00
2022-11-24T17:30:31.444Z,0.00
2022-11-24T17:35:20.568Z,0.00
2022-11-24T17:40:28.999Z,0.00
2022-11-24T17:45:32.600Z,0.00
2022-11-24T17:50:25.786Z,0.00
2022-11-24T17:55:27.659Z,0.00
2022-11-24T18:00:17.009Z,0.00
2022-11-24T18:05:22.743Z,0.00
2022-11-24T18:10:27.862Z,0.00
2022-11-24T18:15:16.881Z,0.00
2022-11-24T18:20:23.043Z,0.00
2022-11-24T18:25:28.986Z,0.00
2022-11-24T18:30:18.026Z,0.00
2022-11-24T18:35:24.146Z,0.00
2022-11-24T18:40:30.222Z,0.00
2022-11-24T18:45:20.049Z,0.00
2022-11-24T18:50:25.252Z,0.00
2022-11-24T18:55:31.382Z,0.00
2022-11-24T19:00:20.517Z,0.00
2022-11-24T19:05:26.359Z,0.00
2022-11-24T19:10:32.406Z,0.00
2022-11-24T19:15:21.413Z,0.00
2022-11-24T19:20:27.585Z,0.00
2022-11-24T19:25:16.590Z,0.00
2022-11-24T19:30:22.609Z,0.00
2022-11-24T19:35:28.668Z,0.00
2022-11-24T19:40:17.787Z,0.00
2022-11-24T19:45:23.828Z,0.00
2022-11-24T19:50:29.844Z,0.00
2022-11-24T19:55:18.863Z,0.00
2022-11-24T20:00:29.087Z,0.00
2022-11-24T20:05:30.730Z,0.00
2022-11-24T20:10:19.098Z,0.00
2022-11-24T20:15:25.149Z,0.00
2022-11-24T20:20:31.201Z,0.00
2022-11-24T20:25:20.242Z,0.00
2022-11-24T20:30:26.292Z,0.00
2022-11-24T20:35:32.434Z,0.00
2022-11-24T20:40:21.479Z,0.00
2022-11-24T20:45:27.662Z,0.00
2022-11-24T20:50:16.521Z,0.00
2022-11-24T20:55:22.647Z,0.00
2022-11-24T21:00:28.650Z,0.00
2022-11-24T21:05:17.530Z,0.00
2022-11-24T21:10:23.898Z,0.00
2022-11-24T21:15:29.875Z,0.00
2022-11-24T21:20:19.015Z,0.00
2022-11-24T21:25:24.941Z,0.00
2022-11-24T21:30:31.016Z,0.00
2022-11-24T21:35:20.003Z,0.00
2022-11-24T21:40:26.168Z,0.00
2022-11-24T21:45:32.314Z,0.00
2022-11-24T21:50:21.224Z,0.00
2022-11-24T21:55:28.153Z,0.00
2022-11-24T22:00:33.484Z,0.00
2022-11-24T22:05:22.077Z,0.00
2022-11-24T22:10:28.634Z,0.00
2022-11-24T22:15:17.556Z,0.00
2022-11-24T22:20:23.637Z,0.00
2022-11-24T22:25:29.692Z,0.00
2022-11-24T22:30:18.701Z,0.00
2022-11-24T22:35:24.823Z,0.00
2022-11-24T22:40:30.919Z,0.00
2022-11-24T22:45:19.836Z,0.00
2022-11-24T22:50:25.990Z,0.00
2022-11-24T22:55:32.056Z,0.00
2022-11-24T23:00:21.288Z,0.00
2022-11-24T23:05:27.013Z,0.00
2022-11-24T23:10:16.148Z,0.00
2022-11-24T23:15:22.316Z,0.00
2022-11-24T23:20:28.267Z,0.00
2022-11-24T23:25:17.329Z,0.00
2022-11-24T23:30:23.428Z,0.00
2022-11-24T23:35:29.443Z,0.00
2022-11-24T23:40:18.612Z,0.00
2022-11-24T23:45:24.786Z,0.00
2022-11-24T23:50:30.715Z,0.00
2022-11-24T23:55:19.747Z,0.00
